createdAt,value
2019-04-21T00:02:27.676Z,20.50
2019-04-21T00:05:12.815Z,20.50
2019-04-21T00:07:46.985Z,20.50
2019-04-21T00:10:12.523Z,20.40
2019-04-21T00:12:40.611Z,20.50
2019-04-21T00:15:07.262Z,20.40
2019-04-21T00:17:29.879Z,20.40
2019-04-21T00:20:15.755Z,20.40
2019-04-21T00:22:44.310Z,20.40
2019-04-21T00:25:18.103Z,20.40
2019-04-21T00:27:51.601Z,20.40
2019-04-21T00:30:32.862Z,20.40
2019-04-21T00:32:51.566Z,20.40
2019-04-21T00:35:11.730Z,20.40
2019-04-21T00:38:04.833Z,20.30
2019-04-21T00:40:30.240Z,20.40
2019-04-21T00:43:02.492Z,20.40
2019-04-21T00:45:23.414Z,20.40
2019-04-21T00:48:05.686Z,20.30
2019-04-21T00:50:41.942Z,20.30
2019-04-21T00:53:10.399Z,20.30
2019-04-21T00:55:53.437Z,20.30
2019-04-21T00:58:23.655Z,20.30
2019-04-21T01:00:51.217Z,20.30
2019-04-21T01:03:26.085Z,20.30
2019-04-21T01:06:13.062Z,20.30
2019-04-21T01:08:25.112Z,20.30
2019-04-21T01:10:49.268Z,20.30
2019-04-21T01:13:27.381Z,20.30
2019-04-21T01:15:59.548Z,20.30
2019-04-21T01:18:31.372Z,20.30
2019-04-21T01:20:37.752Z,20.30
2019-04-21T01:23:08.400Z,20.30
2019-04-21T01:25:46.068Z,20.30
2019-04-21T01:28:27.171Z,20.30
2019-04-21T01:30:56.889Z,20.30
2019-04-21T01:33:36.243Z,20.30
2019-04-21T01:35:58.344Z,20.30
2019-04-21T01:38:34.229Z,20.30
2019-04-21T01:41:08.560Z,20.30
2019-04-21T01:43:33.317Z,20.20
2019-04-21T01:46:06.678Z,20.20
2019-04-21T01:48:34.467Z,20.20
2019-04-21T01:51:01.569Z,20.20
2019-04-21T01:53:48.296Z,20.30
2019-04-21T01:56:51.233Z,20.20
2019-04-21T01:59:12.852Z,20.20
2019-04-21T02:02:02.375Z,20.20
2019-04-21T02:04:36.709Z,20.20
2019-04-21T02:07:03.090Z,20.20
2019-04-21T02:09:38.414Z,20.20
2019-04-21T02:12:10.527Z,20.20
2019-04-21T02:14:45.649Z,20.20
2019-04-21T02:17:13.289Z,20.20
2019-04-21T02:19:37.849Z,20.20
2019-04-21T02:22:04.897Z,20.20
2019-04-21T02:24:49.914Z,20.20
2019-04-21T02:27:14.959Z,20.20
2019-04-21T02:29:48.757Z,20.20
2019-04-21T02:35:04.203Z,20.20
2019-04-21T02:37:44.574Z,20.20
2019-04-21T02:42:29.198Z,20.20
2019-04-21T02:45:03.921Z,20.20
2019-04-21T02:50:24.310Z,20.20
2019-04-21T02:52:35.614Z,20.10
2019-04-21T02:55:02.757Z,20.20
2019-04-21T02:57:39.563Z,20.10
2019-04-21T03:05:50.766Z,20.10
2019-04-21T03:08:29.046Z,20.10
2019-04-21T03:10:59.202Z,20.10
2019-04-21T03:13:29.754Z,20.10
2019-04-21T03:16:03.096Z,20.10
2019-04-21T03:21:00.285Z,20.10
2019-04-21T03:23:28.041Z,20.10
2019-04-21T03:26:04.991Z,20.10
2019-04-21T03:28:29.712Z,20.10
2019-04-21T03:31:19.610Z,20.10
2019-04-21T03:36:38.220Z,20.10
2019-04-21T03:41:04.696Z,20.10
2019-04-21T03:43:36.441Z,20.00
2019-04-21T03:46:26.590Z,20.00
2019-04-21T03:48:58.326Z,20.10
2019-04-21T03:51:13.817Z,20.00
2019-04-21T03:53:40.348Z,20.00
2019-04-21T03:56:44.508Z,20.00
2019-04-21T04:01:32.857Z,20.00
2019-04-21T04:04:22.451Z,20.00
2019-04-21T04:14:31.053Z,20.00
2019-04-21T04:17:06.449Z,20.00
2019-04-21T04:19:37.992Z,20.00
2019-04-21T04:22:04.023Z,20.00
2019-04-21T04:24:34.025Z,20.00
2019-04-21T04:27:07.881Z,20.00
2019-04-21T04:31:57.059Z,20.00
2019-04-21T04:34:40.438Z,20.00
2019-04-21T04:37:15.538Z,20.00
2019-04-21T04:40:10.703Z,20.00
2019-04-21T04:42:39.330Z,20.00
2019-04-21T04:47:32.855Z,20.00
2019-04-21T04:50:05.313Z,20.00
2019-04-21T04:52:40.051Z,20.00
2019-04-21T04:55:06.790Z,20.00
2019-04-21T04:57:55.335Z,20.00
2019-04-21T05:00:21.361Z,20.00
2019-04-21T05:10:18.560Z,19.90
2019-04-21T05:12:47.893Z,20.00
2019-04-21T05:15:12.634Z,19.90
2019-04-21T05:17:46.449Z,19.90
2019-04-21T05:20:18.567Z,19.90
2019-04-21T05:22:44.738Z,19.90
2019-04-21T05:25:08.667Z,19.90
2019-04-21T05:27:40.988Z,20.00
2019-04-21T05:30:29.607Z,19.90
2019-04-21T05:33:16.003Z,20.00
2019-04-21T05:35:49.006Z,20.10
2019-04-21T05:38:27.503Z,20.00
2019-04-21T05:40:52.396Z,20.00
2019-04-21T05:43:32.592Z,19.90
2019-04-21T05:46:04.824Z,19.80
2019-04-21T05:48:37.727Z,19.80
2019-04-21T05:51:03.559Z,19.80
2019-04-21T05:53:35.668Z,19.80
2019-04-21T05:56:09.956Z,19.80
2019-04-21T05:58:40.579Z,19.90
2019-04-21T06:06:20.477Z,19.80
2019-04-21T06:08:46.811Z,19.70
2019-04-21T06:11:18.670Z,19.70
2019-04-21T06:13:58.046Z,19.70
2019-04-21T06:16:21.678Z,19.60
2019-04-21T06:18:53.250Z,19.60
2019-04-21T06:21:21.916Z,19.60
2019-04-21T06:23:49.598Z,19.60
2019-04-21T06:29:09.091Z,19.60
2019-04-21T06:31:57.798Z,19.40
2019-04-21T06:34:02.082Z,19.30
2019-04-21T06:36:56.676Z,19.30
2019-04-21T06:39:23.746Z,19.40
2019-04-21T06:41:58.833Z,19.40
2019-04-21T06:44:23.262Z,19.50
2019-04-21T06:46:55.005Z,19.50
2019-04-21T06:49:25.147Z,19.40
2019-04-21T06:52:02.405Z,19.40
2019-04-21T06:54:28.483Z,19.40
2019-04-21T06:57:00.817Z,19.40
2019-04-21T06:59:29.398Z,19.40
2019-04-21T07:02:26.724Z,19.40
2019-04-21T07:04:31.779Z,19.40
2019-04-21T07:06:59.472Z,19.40
2019-04-21T07:09:31.104Z,19.40
2019-04-21T07:11:59.842Z,19.40
2019-04-21T07:14:32.021Z,19.40
2019-04-21T07:17:15.988Z,19.40
2019-04-21T07:19:41.896Z,19.40
2019-04-21T07:22:14.577Z,19.30
2019-04-21T07:24:37.127Z,19.30
2019-04-21T07:27:08.970Z,19.40
2019-04-21T07:29:50.671Z,19.40
2019-04-21T07:32:22.148Z,19.40
2019-04-21T07:34:46.134Z,19.40
2019-04-21T07:37:11.671Z,19.50
2019-04-21T07:39:45.158Z,19.50
2019-04-21T07:42:13.278Z,19.50
2019-04-21T07:45:05.328Z,19.40
2019-04-21T07:47:56.549Z,19.50
2019-04-21T07:50:35.169Z,19.40
2019-04-21T07:53:23.045Z,19.50
2019-04-21T07:55:43.179Z,19.50
2019-04-21T07:58:47.535Z,19.60
2019-04-21T08:01:12.252Z,19.50
2019-04-21T08:03:40.590Z,19.50
2019-04-21T08:06:19.326Z,19.60
2019-04-21T08:08:42.288Z,19.60
2019-04-21T08:11:10.949Z,19.60
2019-04-21T08:13:57.789Z,19.40
2019-04-21T08:16:20.703Z,19.40
2019-04-21T08:18:47.267Z,19.50
2019-04-21T08:21:11.104Z,19.50
2019-04-21T08:23:50.307Z,19.60
2019-04-21T08:26:17.549Z,19.60
2019-04-21T08:28:58.868Z,19.70
2019-04-21T08:31:25.890Z,19.70
2019-04-21T08:33:56.092Z,19.70
2019-04-21T08:36:32.548Z,19.70
2019-04-21T08:38:53.935Z,19.70
2019-04-21T08:41:28.173Z,19.60
2019-04-21T08:43:57.501Z,19.60
2019-04-21T08:46:36.308Z,19.60
2019-04-21T08:49:04.696Z,19.60
2019-04-21T08:54:02.395Z,19.60
2019-04-21T08:56:46.647Z,19.60
2019-04-21T08:59:36.357Z,19.60
2019-04-21T09:02:16.784Z,19.60
2019-04-21T09:04:46.566Z,19.60
2019-04-21T09:07:19.976Z,19.60
2019-04-21T09:09:46.795Z,19.50
2019-04-21T09:12:23.774Z,19.50
2019-04-21T09:14:50.657Z,19.50
2019-04-21T09:17:15.312Z,19.50
2019-04-21T09:20:13.970Z,19.60
2019-04-21T09:22:24.385Z,19.60
2019-04-21T09:25:09.364Z,19.60
2019-04-21T09:27:20.650Z,19.60
2019-04-21T09:29:44.847Z,19.60
2019-04-21T09:32:13.583Z,19.60
2019-04-21T09:34:43.770Z,19.60
2019-04-21T09:37:24.616Z,19.60
2019-04-21T09:39:46.711Z,19.50
2019-04-21T09:42:13.474Z,19.50
2019-04-21T09:44:45.762Z,19.60
2019-04-21T09:47:16.883Z,19.50
2019-04-21T09:49:45.212Z,19.60
2019-04-21T09:52:20.959Z,19.60
2019-04-21T09:54:55.225Z,19.60
2019-04-21T09:57:27.402Z,19.60
2019-04-21T09:59:55.782Z,19.60
2019-04-21T10:02:31.045Z,19.60
2019-04-21T10:04:50.186Z,19.60
2019-04-21T10:07:27.509Z,19.60
2019-04-21T10:09:50.605Z,19.60
2019-04-21T10:12:20.000Z,19.60
2019-04-21T10:14:49.525Z,19.60
2019-04-21T10:17:29.611Z,19.60
2019-04-21T10:19:59.110Z,19.60
2019-04-21T10:22:28.819Z,19.60
2019-04-21T10:24:58.548Z,19.70
2019-04-21T10:27:27.860Z,19.70
2019-04-21T10:29:58.183Z,19.70
2019-04-21T10:32:28.215Z,19.70
2019-04-21T10:34:59.091Z,19.70
2019-04-21T10:37:42.604Z,19.70
2019-04-21T10:40:00.119Z,19.70
2019-04-21T10:42:31.137Z,19.70
2019-04-21T10:45:01.096Z,19.70
2019-04-21T10:47:31.291Z,19.70
2019-04-21T10:50:00.621Z,19.70
2019-04-21T10:52:48.983Z,19.70
2019-04-21T10:55:38.974Z,19.70
2019-04-21T10:58:10.931Z,19.70
2019-04-21T11:00:41.927Z,19.70
2019-04-21T11:03:48.959Z,19.70
2019-04-21T11:06:21.039Z,19.70
2019-04-21T11:08:55.151Z,19.70
2019-04-21T11:11:21.805Z,19.70
2019-04-21T11:13:52.534Z,19.70
2019-04-21T11:16:23.386Z,19.70
2019-04-21T11:18:53.687Z,19.70
2019-04-21T11:21:23.126Z,19.70
2019-04-21T11:23:52.367Z,19.70
2019-04-21T11:26:22.074Z,19.70
2019-04-21T11:28:52.658Z,19.70
2019-04-21T11:31:22.922Z,19.70
2019-04-21T11:33:53.330Z,19.80
2019-04-21T11:36:22.858Z,19.80
2019-04-21T11:39:08.679Z,19.80
2019-04-21T11:41:27.891Z,19.80
2019-04-21T11:43:57.330Z,19.80
2019-04-21T11:46:26.856Z,19.80
2019-04-21T11:48:56.201Z,19.80
2019-04-21T11:51:26.879Z,19.80
2019-04-21T11:53:56.936Z,19.80
2019-04-21T11:56:27.229Z,19.80
2019-04-21T11:58:57.789Z,19.80
2019-04-21T12:01:27.634Z,19.80
2019-04-21T12:03:57.995Z,19.80
2019-04-21T12:06:32.182Z,19.80
2019-04-21T12:09:01.288Z,19.80
2019-04-21T12:11:29.440Z,19.80
2019-04-21T12:14:00.309Z,19.80
2019-04-21T12:16:30.816Z,19.80
2019-04-21T12:19:00.928Z,19.80
2019-04-21T12:21:46.135Z,19.80
2019-04-21T12:24:01.131Z,19.90
2019-04-21T12:26:31.718Z,19.80
2019-04-21T12:29:01.840Z,19.90
2019-04-21T12:31:49.709Z,19.90
2019-04-21T12:34:19.463Z,19.90
2019-04-21T12:36:48.811Z,19.90
2019-04-21T12:39:18.767Z,19.90
2019-04-21T12:41:50.860Z,19.90
2019-04-21T12:44:20.465Z,19.90
2019-04-21T12:46:50.054Z,19.90
2019-04-21T12:49:20.114Z,19.90
2019-04-21T12:51:49.603Z,19.90
2019-04-21T12:54:19.637Z,19.90
2019-04-21T12:56:49.581Z,20.00
2019-04-21T12:59:19.120Z,20.00
2019-04-21T13:01:48.655Z,20.00
2019-04-21T13:04:17.964Z,20.00
2019-04-21T13:06:47.606Z,20.00
2019-04-21T13:09:20.315Z,20.00
2019-04-21T13:11:48.892Z,20.00
2019-04-21T13:14:19.833Z,20.00
2019-04-21T13:16:49.678Z,20.10
2019-04-21T13:19:19.294Z,20.00
2019-04-21T13:21:49.863Z,20.00
2019-04-21T13:24:19.952Z,20.00
2019-04-21T13:26:55.553Z,20.00
2019-04-21T13:29:20.518Z,20.10
2019-04-21T13:31:50.142Z,20.10
2019-04-21T13:34:20.028Z,20.10
2019-04-21T13:36:49.890Z,20.10
2019-04-21T13:40:06.575Z,20.10
2019-04-21T13:42:18.426Z,20.10
2019-04-21T13:44:41.362Z,20.20
2019-04-21T13:47:10.754Z,20.10
2019-04-21T13:49:41.393Z,20.10
2019-04-21T13:52:11.089Z,20.20
2019-04-21T13:54:40.803Z,20.10
2019-04-21T13:57:10.473Z,20.20
2019-04-21T13:59:40.431Z,20.20
2019-04-21T14:02:11.142Z,20.20
2019-04-21T14:04:41.253Z,20.30
2019-04-21T14:07:12.095Z,20.20
2019-04-21T14:09:49.997Z,20.20
2019-04-21T14:12:13.629Z,20.30
2019-04-21T14:14:44.105Z,20.30
2019-04-21T14:17:15.008Z,20.30
2019-04-21T14:19:45.589Z,20.30
2019-04-21T14:22:18.019Z,20.30
2019-04-21T14:24:48.008Z,20.30
2019-04-21T14:27:18.504Z,20.30
2019-04-21T14:29:49.121Z,20.30
2019-04-21T14:32:20.140Z,20.30
2019-04-21T14:34:50.708Z,20.40
2019-04-21T14:37:20.659Z,20.30
2019-04-21T14:39:57.827Z,20.30
2019-04-21T14:42:22.109Z,20.40
2019-04-21T14:44:51.738Z,20.40
2019-04-21T14:47:41.861Z,20.40
2019-04-21T14:50:40.010Z,20.40
2019-04-21T14:53:17.861Z,20.40
2019-04-21T14:55:49.134Z,20.40
2019-04-21T14:58:19.144Z,20.50
2019-04-21T15:01:06.162Z,20.40
2019-04-21T15:03:35.349Z,20.40
2019-04-21T15:06:05.514Z,20.40
2019-04-21T15:08:35.328Z,20.40
2019-04-21T15:11:05.341Z,20.40
2019-04-21T15:13:35.510Z,20.40
2019-04-21T15:16:06.778Z,20.40
2019-04-21T15:18:36.807Z,20.40
2019-04-21T15:21:07.635Z,20.50
2019-04-21T15:23:38.200Z,20.40
2019-04-21T15:26:08.295Z,20.50
2019-04-21T15:28:40.491Z,20.50
2019-04-21T15:31:14.814Z,20.50
2019-04-21T15:33:41.114Z,20.50
2019-04-21T15:36:11.301Z,20.50
2019-04-21T15:38:40.656Z,20.50
2019-04-21T15:41:10.858Z,20.50
2019-04-21T15:43:40.590Z,20.50
2019-04-21T15:46:10.967Z,20.50
2019-04-21T15:48:41.200Z,20.60
2019-04-21T15:51:11.099Z,20.50
2019-04-21T15:53:41.805Z,20.50
2019-04-21T15:56:15.346Z,20.60
2019-04-21T15:59:02.155Z,20.60
2019-04-21T16:01:38.934Z,20.60
2019-04-21T16:04:08.389Z,20.60
2019-04-21T16:06:37.606Z,20.60
2019-04-21T16:09:14.902Z,20.60
2019-04-21T16:11:40.111Z,20.60
2019-04-21T16:14:10.186Z,20.60
2019-04-21T16:16:41.006Z,20.60
2019-04-21T16:19:10.360Z,20.60
2019-04-21T16:21:42.215Z,20.50
2019-04-21T16:24:11.808Z,20.50
2019-04-21T16:26:42.681Z,20.50
2019-04-21T16:29:13.218Z,20.50
2019-04-21T16:31:42.764Z,20.50
2019-04-21T16:34:11.953Z,20.50
2019-04-21T16:36:41.382Z,20.40
2019-04-21T16:39:11.540Z,20.40
2019-04-21T16:41:40.727Z,20.40
2019-04-21T16:44:11.194Z,20.40
2019-04-21T16:46:41.324Z,20.40
2019-04-21T16:49:11.796Z,20.40
2019-04-21T16:51:42.278Z,20.40
2019-04-21T16:54:20.258Z,20.30
2019-04-21T16:56:54.695Z,20.40
2019-04-21T16:59:32.724Z,20.50
2019-04-21T17:02:02.734Z,20.60
2019-04-21T17:04:32.201Z,20.60
2019-04-21T17:07:02.936Z,20.60
2019-04-21T17:09:32.640Z,20.60
2019-04-21T17:12:05.888Z,20.60
2019-04-21T17:14:49.558Z,20.60
2019-04-21T17:17:27.236Z,20.60
2019-04-21T17:19:41.836Z,20.60
2019-04-21T17:22:05.895Z,20.50
2019-04-21T17:24:35.227Z,20.50
2019-04-21T17:27:05.129Z,20.50
2019-04-21T17:29:34.606Z,20.50
2019-04-21T17:32:06.541Z,20.60
2019-04-21T17:34:36.241Z,20.50
2019-04-21T17:37:05.657Z,20.50
2019-04-21T17:39:34.862Z,20.50
2019-04-21T17:42:14.177Z,20.50
2019-04-21T17:44:37.340Z,20.50
2019-04-21T17:47:20.073Z,20.50
2019-04-21T17:49:39.156Z,20.40
2019-04-21T17:52:36.716Z,20.50
2019-04-21T17:55:11.251Z,20.40
2019-04-21T17:57:53.016Z,20.50
2019-04-21T18:00:36.391Z,20.50
2019-04-21T18:02:59.027Z,20.60
2019-04-21T18:05:27.243Z,20.50
2019-04-21T18:07:54.744Z,20.40
2019-04-21T18:10:25.687Z,20.40
2019-04-21T18:12:52.315Z,20.40
2019-04-21T18:15:29.057Z,20.40
2019-04-21T18:17:44.849Z,20.40
2019-04-21T18:20:15.790Z,20.40
2019-04-21T18:22:54.680Z,20.40
2019-04-21T18:25:36.170Z,20.40
2019-04-21T18:27:56.560Z,20.40
2019-04-21T18:31:16.535Z,20.40
2019-04-21T18:34:08.774Z,20.40
2019-04-21T18:36:45.449Z,20.50
2019-04-21T18:39:46.394Z,20.60
2019-04-21T18:42:26.376Z,20.60
2019-04-21T18:45:40.301Z,20.70
2019-04-21T18:48:02.680Z,20.70
2019-04-21T18:51:02.839Z,20.70
2019-04-21T18:53:47.711Z,20.70
2019-04-21T18:56:09.697Z,20.70
2019-04-21T18:58:38.198Z,20.70
2019-04-21T19:01:16.104Z,20.70
2019-04-21T19:03:43.006Z,20.70
2019-04-21T19:06:16.427Z,20.70
2019-04-21T19:08:59.257Z,20.70
2019-04-21T19:11:28.049Z,20.70
2019-04-21T19:14:36.295Z,20.60
2019-04-21T19:17:04.328Z,20.50
2019-04-21T19:19:41.175Z,20.50
2019-04-21T19:21:55.233Z,20.50
2019-04-21T19:24:29.125Z,20.50
2019-04-21T19:26:59.363Z,20.40
2019-04-21T19:29:28.864Z,20.40
2019-04-21T19:31:54.733Z,20.40
2019-04-21T19:34:18.813Z,20.40
2019-04-21T19:36:49.036Z,20.50
2019-04-21T19:39:23.276Z,20.50
2019-04-21T19:41:58.550Z,20.50
2019-04-21T19:44:33.987Z,20.40
2019-04-21T19:47:03.859Z,20.40
2019-04-21T19:49:43.682Z,20.40
2019-04-21T19:51:56.261Z,20.40
2019-04-21T19:54:29.971Z,20.40
2019-04-21T19:56:53.392Z,20.40
2019-04-21T19:59:32.439Z,20.40
2019-04-21T20:01:58.354Z,20.40
2019-04-21T20:04:34.437Z,20.40
2019-04-21T20:07:19.212Z,20.40
2019-04-21T20:09:50.030Z,20.40
2019-04-21T20:12:28.845Z,20.40
2019-04-21T20:14:59.456Z,20.40
2019-04-21T20:17:18.858Z,20.40
2019-04-21T20:19:38.384Z,20.40
2019-04-21T20:22:09.364Z,20.40
2019-04-21T20:24:49.894Z,20.40
2019-04-21T20:27:17.610Z,20.40
2019-04-21T20:30:02.625Z,20.40
2019-04-21T20:32:36.627Z,20.40
2019-04-21T20:35:07.029Z,20.40
2019-04-21T20:37:32.101Z,20.40
2019-04-21T20:39:54.945Z,20.40
2019-04-21T20:42:28.118Z,20.40
2019-04-21T20:45:23.069Z,20.40
2019-04-21T20:47:29.401Z,20.40
2019-04-21T20:50:02.992Z,20.40
2019-04-21T20:52:41.792Z,20.40
2019-04-21T20:55:04.890Z,20.40
2019-04-21T20:57:37.873Z,20.40
2019-04-21T21:00:12.301Z,20.40
2019-04-21T21:02:47.886Z,20.40
2019-04-21T21:05:10.493Z,20.40
2019-04-21T21:07:50.516Z,20.40
2019-04-21T21:10:16.637Z,20.40
2019-04-21T21:13:00.975Z,20.40
2019-04-21T21:15:10.067Z,20.40
2019-04-21T21:17:59.710Z,20.40
2019-04-21T21:20:24.841Z,20.40
2019-04-21T21:22:50.873Z,20.40
2019-04-21T21:25:33.795Z,20.40
2019-04-21T21:27:49.493Z,20.40
2019-04-21T21:30:24.657Z,20.40
2019-04-21T21:32:56.350Z,20.40
2019-04-21T21:35:21.532Z,20.40
2019-04-21T21:38:03.595Z,20.40
2019-04-21T21:40:30.621Z,20.40
2019-04-21T21:42:45.350Z,20.40
2019-04-21T21:45:18.363Z,20.40
2019-04-21T21:48:01.219Z,20.40
2019-04-21T21:50:26.069Z,20.40
2019-04-21T21:52:59.876Z,20.40
2019-04-21T21:55:19.394Z,20.40
2019-04-21T21:57:52.956Z,20.40
2019-04-21T22:00:21.792Z,20.40
2019-04-21T22:02:54.655Z,20.30
2019-04-21T22:05:26.036Z,20.40
2019-04-21T22:07:54.215Z,20.40
2019-04-21T22:10:23.542Z,20.40
2019-04-21T22:13:01.014Z,20.30
2019-04-21T22:15:26.803Z,20.30
2019-04-21T22:18:22.246Z,20.40
2019-04-21T22:20:41.945Z,20.40
2019-04-21T22:23:02.225Z,20.40
2019-04-21T22:25:33.335Z,20.30
2019-04-21T22:28:02.041Z,20.40
2019-04-21T22:30:37.042Z,20.30
2019-04-21T22:33:08.286Z,20.30
2019-04-21T22:35:41.815Z,20.40
2019-04-21T22:38:19.105Z,20.50
2019-04-21T22:40:50.639Z,20.50
2019-04-21T22:43:18.505Z,20.60
2019-04-21T22:45:37.597Z,20.50
2019-04-21T22:48:15.585Z,20.50
2019-04-21T22:50:40.374Z,20.50
2019-04-21T22:53:11.732Z,20.50
2019-04-21T22:55:41.016Z,20.40
2019-04-21T22:58:11.455Z,20.40
2019-04-21T23:00:46.015Z,20.40
2019-04-21T23:03:17.385Z,20.40
2019-04-21T23:05:45.140Z,20.40
2019-04-21T23:08:15.056Z,20.40
2019-04-21T23:10:51.172Z,20.40
2019-04-21T23:13:19.530Z,20.40
2019-04-21T23:15:53.217Z,20.40
2019-04-21T23:18:30.625Z,20.40
2019-04-21T23:21:06.256Z,20.40
2019-04-21T23:23:39.796Z,20.40
2019-04-21T23:26:07.550Z,20.40
2019-04-21T23:28:40.555Z,20.40
2019-04-21T23:31:11.164Z,20.40
2019-04-21T23:33:23.899Z,20.40
2019-04-21T23:36:02.650Z,20.40
2019-04-21T23:38:30.276Z,20.40
2019-04-21T23:40:59.881Z,20.40
2019-04-21T23:43:29.269Z,20.40
2019-04-21T23:45:57.305Z,20.40
2019-04-21T23:48:39.152Z,20.40
2019-04-21T23:51:14.379Z,20.40
2019-04-21T23:53:29.276Z,20.40
2019-04-21T23:55:59.217Z,20.40
2019-04-21T23:58:32.637Z,20.40
